Main page
METAR-TAF:

METAR-TAF

Airports :

Larnaca International Airport

Larnaca, Cyprus

latitude: 34-53N, longitude: 033-38E, elevation: 2 m

Current weather observation

The report was made 21 minutes ago, at 21:00 UTC
Wind 3 kt from the Northwest, varying between West/Southwest and North/Northwest
Temperature 25°C
Humidity 65%
Pressure 1010 hPa
Visibility 10 km or more
no clouds below 1500 m and no cumulonimbus

METAR: LCLK 202100Z 31003KT 250V340 CAVOK 25/18 Q1010 NOSIG

Time: 00:21 (21:21 UTC)

Forecast

The report was made 3 hours and 51 minutes ago, at 17:30 UTC
Forecast valid from 20 at 18 UTC to 21 at 18 UTC
Wind 6 kt from the Northwest
Visibility 10 km or more
Few clouds at a height of 2000 ft
Becoming
from 21 at 07 UTC to 21 at 09 UTC
Wind 12 kt from the South

TAF: LCLK 201730Z 2018/2118 32006KT 9999 FEW020 BECMG 2107/2109 18012KT

Weather observations and forecasts of more than 4000 airports (METAR and TAF reports).

The available stations are represented by yellow and red dots on the map.

Hover mouse over dot to see the name of the station.

Then click to see weather observations and forecasts.

To change the map : click on the green buttons with a black cross to zoom in, on the green button with a dash to zoom out, or on the green arrows for adjacent maps.


METAR-TAF: